Tiempo atmosférico en la estación meteorológica de San Sebastián De La Gomera, Santa Cruz de Tenerife (15 m.)



Fecha
DESCASC
Temp. máxima en grados centígrados (hora)
DESCASC
Temp. mínima en grados centígrados (hora)
DESCASC
Temp. media en grados centígrados
DESCASC
Racha de viento máxima en m/sg (hora)
DESCASC
Velocidad máxima media en intervalos de 10 minutos(hora)
DESCASC
Precipitaciones diarias en mm
DESCASC
Precipitaciones de 00:00 a 06:00 en mm
DESCASC
Precipitaciones de 06:00 a 12:00 en mm
DESCASC
Precipitaciones de 12:00 a 18:00 en mm
DESCASC
Precipitaciones de 18:00 a 24:00 en mm
DESCASC
19-02-2019 20.8 (12:50) 16 (07:00) 18.4 15 (04:40) 5.56 (04:50) 0 0 0 0 0
18-02-2019 19.7 (15:40) 16.8 (22:50) 18.3 15.56 (15:50) 7.22 (17:20) 0 0 0 0 0
17-02-2019 22.1 (16:20) 15.6 (00:00) 18.9 8.89 (23:20) 5 (19:00) 0 0 0 0 0
16-02-2019 19.4 (16:30) 15.3 (00:00) 17.3 14.44 (03:40) 7.5 (15:30) 9.1 2.8 4.6 1.7 0
15-02-2019 21 (10:10) 15.3 (00:00) 18.2 15 (22:40) 5 (13:00) 2.9 0 2.9 0 0
14-02-2019 23.8 (09:10) 18.9 (00:00) 21.3 8.06 (21:20) 5.28 (00:50) 0 0 0 0 0
13-02-2019 25.6 (11:40) 18.2 (00:00) 21.9 9.72 (14:50) 5 (22:30) 0 0 0 0 0
12-02-2019 26.9 (10:10) 18.1 (00:00) 22.5 8.89 (13:40) 6.67 (13:40) 0 0 0 0 0
11-02-2019 26.5 (11:20) 20.3 (00:00) 23.4 9.44 (11:40) 3.89 (14:30) 0 0 0 0 0
10-02-2019 27 (14:10) 15.6 (00:00) 21.3 6.94 (23:20) 4.17 (23:10) 0 0 0 0 0
09-02-2019 21.4 (15:30) 12.6 (00:00) 17 5.56 (05:30) 3.61 (10:40) 0 0 0 0 0
08-02-2019 21.5 (14:50) 13 (00:00) 17.3 6.11 (15:40) 2.78 (07:40) 0 0 0 0 0
07-02-2019 23.1 (12:40) 13.9 (00:00) 18.5 5 (15:30) 3.06 (03:30) 0 0 0 0 0
06-02-2019 24.1 (15:10) 16.4 (04:20) 20.3 6.94 (01:40) 4.17 (05:00) 0 0 0 0 0
05-02-2019 21.1 (10:50) 17.3 (22:10) 19.2 8.06 (11:40) 6.11 (13:20) 0 0 0 0 0
04-02-2019 23.1 (16:10) 16.8 (00:00) 19.9 13.33 (00:30) 6.11 (04:40) 0 0 0 0 0
03-02-2019 20.1 (13:10) 17 (00:00) 18.6 13.89 (14:30) 6.67 (00:30) 0 0 0 0 0
02-02-2019 20.7 (13:40) 17.1 (00:00) 18.9 15 (21:10) 6.94 (19:20) 0 0 0 0 0
01-02-2019 21.8 (12:40) 17.2 (00:00) 19.5 13.61 (18:40) 6.39 (18:40) 0 0 0 0 0
31-01-2019 20.2 (16:50) 16.2 (00:00) 18.2 13.33 (01:00) 4.72 (14:30) 0 0 0 0 0
30-01-2019 19.9 (12:20) 15.3 (00:00) 17.6 11.94 (19:30) 6.11 (01:20) 0 0 0 0 0
29-01-2019 20.3 (14:30) 15.4 (00:00) 17.8 13.33 (17:20) 5.83 (10:20) 0 0 0 0 0
28-01-2019 21.2 (14:40) 17.2 (00:00) 19.2 13.61 (16:50) 6.67 (19:00) 0 0 0 0 0
27-01-2019 22.1 (12:10) 15 (00:00) 18.6 11.11 (16:10) 5.28 (23:10) 0 0 0 0 0
26-01-2019 22.3 (14:10) 15.4 (00:00) 18.8 8.06 (15:20) 4.44 (14:50) 0 0 0 0 0
25-01-2019 21.1 (14:50) 14.2 (00:00) 17.7 8.06 (00:20) 3.89 (00:40) 0 0 0 0 0
24-01-2019 20.3 (13:50) 15.9 (00:00) 18.1 10.56 (18:20) 4.44 (06:10) 0 0 0 0 0

Gráficas

Temp. máximas Temp. mínimas Temp. medias Precipitaciones Rachas de viento máximas Velocidades máximas media en intervalos de 10 minutos

Datos horarios

Fecha y hora oficial Temperatura (ºC) Velocidad del viento (km/h) Dirección del viento Racha (km/h) Dirección de racha Precipitación (mm) Presión (hPa) Tendencia (hPa) Humedad (%)
2019-02-22 23:00:00 18.4 6 Noroeste 10 Noroeste 0 1020.5 0.9 48
2019-02-22 22:00:00 18.3 5 Norte 15 Noroeste 0 1020.5 1.3 59
2019-02-22 21:00:00 18.2 6 Noroeste 15 Noroeste 0 1020 1.3 67
2019-02-22 20:00:00 19.6 3 Noroeste 7 Oeste 0 1019.6 1 64
2019-02-22 19:00:00 20.6 3 Sur 16 Sur 0 1019.2 0.1 63
2019-02-22 18:00:00 21.2 7 Sur 17 Sur 0 1018.7 -0.2 64
2019-02-22 17:00:00 21.8 8 Sur 15 Sur 0 1018.6 -0.5 63
2019-02-22 16:00:00 22.2 7 Sur 15 Sur 0 1019.1 -0.7 59
2019-02-22 15:00:00 22.6 7 Sur 24 Sur 0 1018.9 -0.9 57
2019-02-22 14:00:00 22.5 9 Sur 27 Sur 0 1019.1 -0.5 57
2019-02-22 13:00:00 22.2 14 Sur 29 Sur 0 1019.8 0.7 53
2019-02-22 12:00:00 22.7 18 Sur 26 Sur 0 1019.8 0.7 47
2019-02-22 11:00:00 22.8 13 Sur 28 Sur 0 1019.6 0.6 46
2019-02-22 10:00:00 22.3 13 Sur 26 Sur 0 1019.1 0.4 47
2019-02-22 09:00:00 21.5 5 Sudoeste 14 Oeste 0 1019.1 0.7 46
2019-02-22 08:00:00 17.6 8 Norte 15 Noroeste 0 1019 1.5 47
2019-02-22 07:00:00 17 6 Norte 19 Sur 0 1018.7 1 52
2019-02-22 06:00:00 18.8 9 Sur 17 Sur 0 1018.4 0.4 74
2019-02-22 05:00:00 17.8 6 Noroeste 20 Noroeste 0 1017.5 -0.6 42
2019-02-22 04:00:00 17.4 9 Norte 19 Noroeste 0 1017.7 -0.9 43
2019-02-22 03:00:00 16.9 11 Norte 23 Nordeste 0 1018 -1 47
2019-02-22 02:00:00 16.8 10 Noroeste 22 Noroeste 0 1018.1 -1.3 50
2019-02-22 01:00:00 17.1 12 Noroeste 21 Noroeste 0 1018.6 -0.8 54
2019-02-22 00:00:00 17.4 10 Norte 19 Noroeste 0 1019 0.1 56
2019-02-21 23:00:00 17.3 10 Noroeste 21 Noroeste 0 1019.4 1.2 59
2019-02-21 22:00:00 16.9 10 Norte 18 Noroeste 0 1019.4 1.7 64
2019-02-21 21:00:00 17.6 7 Noroeste 13 Noroeste 0 1018.9 1.3 64
2019-02-21 20:00:00 18.4 0 Calma 13 Sudeste 0 1018.2 0.7 74
2019-02-21 19:00:00 18.5 7 Sur 18 Sur 0 1017.7 0.2 80
2019-02-21 18:00:00 18.9 10 Sur 18 Sur 0 1017.6 -0.2 81
2019-02-21 17:00:00 18.7 13 Sur 20 Sur 0 1017.5 -1 82
2019-02-21 16:00:00 18.9 15 Sur 24 Sur 0 1017.5 -1.6 81
2019-02-21 15:00:00 19 18 Sur 26 Sur 0 1017.8 -1.5 80
2019-02-21 14:00:00 19.1 18 Sudeste 25 Sur 0 1018.5 -0.6 79
2019-02-21 13:00:00 18.9 11 Sudeste 18 Sur 0 1019.1 0.4 77
2019-02-21 12:00:00 18.6 13 Sur 23 Sudeste 0 1019.3 1 74
2019-02-21 11:00:00 18.5 15 Sudeste 23 Sudeste 0 1019.1 1.1 71
2019-02-21 10:00:00 18.5 11 Sudeste 19 Sur 0 1018.7 1.2 71
2019-02-21 09:00:00 17.7 4 Sur 14 Norte 0 1018.3 1.1 74
2019-02-21 08:00:00 14.6 8 Norte 15 Noroeste 0 1018 1.2 78
2019-02-21 07:00:00 14.1 9 Noroeste 17 Noroeste 0 1017.5 0.8 78
2019-02-21 06:00:00 14.4 10 Noroeste 17 Noroeste 0 1017.2 0.1 77
2019-02-21 05:00:00 14.2 8 Noroeste 15 Noroeste 0 1016.8 -0.6 77
2019-02-21 04:00:00 14.1 9 Noroeste 15 Noroeste 0 1016.7 -1 77
2019-02-21 03:00:00 14.7 6 Norte 13 Noroeste 0 1017.1 -1.1 76
2019-02-21 02:00:00 15 7 Norte 15 Noroeste 0 1017.4 -1.2 74
2019-02-21 01:00:00 14.7 8 Noroeste 13 Norte 0 1017.7 -0.2 74
2019-02-21 00:00:00 15.4 6 Noroeste 14 Noroeste 0 1018.2 0.6 72
2019-02-20 23:00:00 15.8 8 Noroeste 14 Noroeste 0 1018.6 1.3 72
2019-02-20 22:00:00 16.2 8 Noroeste 13 Noroeste 0 1017.9 0.8 71
2019-02-20 21:00:00 16.8 5 Noroeste 8 Noroeste 0 1017.6 0.5 68
2019-02-20 20:00:00 17.7 0 Calma 8 Sur 0 1017.3 0 67
2019-02-20 19:00:00 18 5 Sudeste 13 Sudeste 0 1017.1 -0.6 67
2019-02-20 18:00:00 19.2 8 Sur 15 Sur 0 1017.1 -0.7 65
2019-02-20 17:00:00 19.2 9 Sur 17 Sudeste 0 1017.3 -0.9 62
2019-02-20 16:00:00 19.4 11 Sudeste 19 Sudeste 0 1017.7 -1.1 62
2019-02-20 15:00:00 19.7 9 Sudeste 18 Sudeste 0 1017.8 -1.3 59
2019-02-20 14:00:00 19.6 10 Sudeste 18 Sur 0 1018.2 -0.7 60
2019-02-20 13:00:00 20.4 5 Sudeste 14 Sudeste 0 1018.8 0.1 57
2019-02-20 12:00:00 20.2 3 Sudeste 13 Sudeste 0 1019.1 1.2 59
2019-02-20 11:00:00 18.9 2 Nordeste 17 Noroeste 0 1018.9 1.6 60
2019-02-20 10:00:00 17.6 10 Noroeste 22 Nordeste 0 1018.7 1.8 62
2019-02-20 09:00:00 17.2 6 Norte 24 Norte 0 1017.9 1.1 64
2019-02-20 08:00:00 17 9 Norte 24 Noroeste 0 1017.3 0.4 64
2019-02-20 07:00:00 17 6 Norte 15 Nordeste 0 1016.9 -0.3 64
2019-02-20 06:00:00 17 4 Noroeste 26 Noroeste 0 1016.8 -0.7 64
2019-02-20 05:00:00 17.1 6 Norte 30 Nordeste 0 1016.9 -0.9 65
2019-02-20 04:00:00 17.1 10 Norte 28 Noroeste 0 1017.2 -1 65
2019-02-20 03:00:00 16.9 10 Noroeste 30 Norte 0 1017.5 -1.1 64
2019-02-20 02:00:00 16.6 6 Noroeste 20 Norte 0 1017.8 -1 65
2019-02-20 01:00:00 16.9 9 Noroeste 18 Oeste 0 1018.2 -0.3 65
2019-02-20 00:00:00 16.7 6 Noroeste 14 Oeste 0 1018.6 0.4 68
2019-02-19 23:00:00 16.7 6 Noroeste 26 Noroeste 0 1018.8 0.6 66
2019-02-19 22:00:00 16.8 10 Norte 28 Norte 0 1018.5 0.5 64
2019-02-19 21:00:00 16.9 9 Norte 36 Norte 0 1018.2 0.3 64
2019-02-19 20:00:00 17 13 Noroeste 33 Norte 0 1018.2 0.3 67
2019-02-19 19:00:00 17.1 13 Noroeste 33 Noroeste 0 1018 0.4 65
2019-02-19 18:00:00 18 8 Noroeste 31 Nordeste 0 1017.9 0.4 64
2019-02-19 17:00:00 18.7 8 Noroeste 30 Oeste 0 1017.9 -0.4 65
2019-02-19 16:00:00 19.3 10 Noroeste 27 Noroeste 0 1017.6 -1.5 62
2019-02-19 15:00:00 18.7 10 Noroeste 47 Noroeste 0 1017.5 -2.3 64
2019-02-19 14:00:00 19.5 7 Norte 30 Este 0 1018.3 -1.6 64
2019-02-19 13:00:00 20 9 Nordeste 27 Nordeste 0 1019.1 -0.2 60
2019-02-19 12:00:00 19.5 9 Norte 31 Norte 0 1019.8 0.5 60
2019-02-19 11:00:00 18.4 15 Norte 37 Nordeste 0 1019.9 1.4 61
2019-02-19 10:00:00 17.7 10 Noroeste 35 Noroeste 0 1019.3 1.2 62
2019-02-19 09:00:00 16.8 12 Norte 35 Noroeste 0 1019.3 1.1 66
2019-02-19 08:00:00 16.4 15 Noroeste 42 Noroeste 0 1018.5 0.5 66
2019-02-19 07:00:00 16.1 13 Norte 41 Norte 0 1018.1 0 66
2019-02-19 06:00:00 16.3 15 Norte 39 Noroeste 0 1018.2 -0.8 65
2019-02-19 05:00:00 16.5 16 Norte 54 Noroeste 0 1018 -1.7 64
2019-02-19 04:00:00 16.5 13 Noroeste 48 Oeste 0 1018.1 -1.8 64
2019-02-19 03:00:00 16.7 17 Norte 45 Norte 0 1019 -1.3 68
2019-02-19 02:00:00 16.8 14 Norte 40 Norte 0 1019.7 -0.9 63
2019-02-19 01:00:00 16.8 14 Norte 42 Noroeste 0 1019.9 -0.3 65
2019-02-19 00:00:00 17 16 Noroeste 46 Norte 0 1020.3 0.4 63
2019-02-18 23:00:00 17 15 Norte 49 Noroeste 0 1020.6 1.3 65
2019-02-18 22:00:00 16.9 15 Norte 53 Norte 0 1020.2 1.6 69
2019-02-18 21:00:00 16.9 15 Noroeste 48 Norte 0 1019.9 1.4 75
2019-02-18 20:00:00 17.2 20 Norte 53 Noroeste 0 1019.3 0.7 72
2019-02-18 19:00:00 17.3 22 Noroeste 48 Noroeste 0 1018.6 -0.3 68
2019-02-18 18:00:00 17.5 19 Noroeste 55 Noroeste 0 1018.5 -1.1 68
2019-02-18 17:00:00 17.8 22 Noroeste 54 Noroeste 0 1018.6 -1.7 71
2019-02-18 16:00:00 18.8 19 Noroeste 56 Noroeste 0 1018.9 -2 68
2019-02-18 15:00:00 18.9 12 Norte 44 Noroeste 0 1019.6 -1.5 73
2019-02-18 14:00:00 17.8 21 Noroeste 44 Noroeste 0 1020.3 -0.9 77
2019-02-18 13:00:00 18.8 20 Noroeste 48 Noroeste 0 1020.9 0.7 76
2019-02-18 12:00:00 18.3 21 Noroeste 54 Norte 0 1021.1 1.4 78
2019-02-18 11:00:00 18.4 15 Noroeste 36 Nordeste 0 1021.2 1.4 81
2019-02-18 10:00:00 18.7 15 Noroeste 42 Norte 0 1020.2 1.2 77
2019-02-18 09:00:00 17.8 20 Norte 39 Norte 0 1019.7 1 80
2019-02-18 08:00:00 17.7 12 Norte 36 Noroeste 0 1019.8 0.6 81
2019-02-18 07:00:00 17.5 13 Norte 35 Nordeste 0 1019 -0.6 79
2019-02-18 06:00:00 17.4 9 Noroeste -- -- -- 1018.7 -1.2 77
2019-02-18 05:00:00 17.6 13 Noroeste 28 Noroeste 0 1019.2 -0.8 79
2019-02-18 04:00:00 17.6 12 Norte 28 Norte 0 1019.6 -0.6 78
2019-02-18 03:00:00 17.6 14 Norte 26 Noroeste 0 1019.9 -0.7 77
2019-02-18 02:00:00 17.5 8 Norte 26 Norte 0 1020 -0.5 77
2019-02-18 01:00:00 17.3 8 Norte 23 Norte 0 1020.2 -0.2 76
2019-02-18 00:00:00 17.6 9 Norte 32 Noroeste 0 1020.6 0.5 75
2019-02-17 23:00:00 17.8 8 Noroeste 21 Noroeste 0 1020.5 0.6 74
2019-02-17 22:00:00 17.9 10 Noroeste 23 Noroeste 0 1020.4 1.1 73
2019-02-17 21:00:00 18.1 9 Norte 23 Noroeste 0 1020.1 0.7 74
2019-02-17 20:00:00 18.4 9 Norte 26 Nordeste 0 1019.9 0.8 74
2019-02-17 19:00:00 18.5 18 Norte 30 Nordeste 0 1019.3 0.4 75
2019-02-17 18:00:00 20.4 8 Norte 28 Nordeste 0 1019.4 -0.1 70
2019-02-17 17:00:00 20.3 11 Nordeste 20 Nordeste 0 1019.1 -1.1 70
2019-02-17 16:00:00 21.2 9 Nordeste 23 Nordeste 0 1018.9 -2 69
2019-02-17 15:00:00 20.9 10 Nordeste 21 Nordeste 0 1019.5 -1.7 71
2019-02-17 14:00:00 20.8 7 Sur 26 Nordeste 0 1020.2 -1.5 64
2019-02-17 13:00:00 20.8 13 Nordeste 31 Este 0 1020.9 -0.2 70
2019-02-17 12:00:00 20.5 7 Norte 27 Nordeste 0 1021.2 0.4 67
2019-02-17 11:00:00 19.8 14 Norte 30 Norte 0 1021.7 1.1 71
2019-02-17 10:00:00 19.5 5 Norte 17 Noroeste 0 1021.1 1 68
2019-02-17 09:00:00 17.7 6 Noroeste 15 Noroeste 0 1020.8 0.8 72
2019-02-17 08:00:00 16.5 9 Noroeste 18 Noroeste 0 1020.6 0.9 74
2019-02-17 07:00:00 16.1 10 Noroeste 18 Noroeste 0 1020.1 0.4 73
2019-02-17 06:00:00 16.3 10 Noroeste 20 Norte 0 1020 0.3 74
2019-02-17 05:00:00 16.3 10 Noroeste 22 Noroeste 0 1019.7 -0.5 79
2019-02-17 04:00:00 16.8 12 Noroeste 20 Noroeste 0 1019.7 -0.5 77
2019-02-17 03:00:00 16.4 11 Noroeste 19 Noroeste 0 1019.7 -0.6 79
2019-02-17 02:00:00 16.7 11 Noroeste 20 Nordeste 0 1020.2 -0.5 77
2019-02-17 01:00:00 17.2 12 Noroeste 29 Noroeste 0 1020.2 -0.5 77
2019-02-17 00:00:00 17.2 12 Noroeste 33 Norte 0 1020.3 0.3 79
2019-02-16 23:00:00 17.3 13 Norte 39 Norte 0 1020.7 1.2 78
2019-02-16 22:00:00 17.5 17 Noroeste 37 Norte 0 1020.7 2.5 78
2019-02-16 21:00:00 17.6 17 Noroeste 37 Nordeste 0 1020 2.5 79
2019-02-16 20:00:00 17.7 14 Norte 35 Nordeste 0 1019.5 2.2 80
2019-02-16 19:00:00 17.7 16 Noroeste 37 Noroeste 0 1018.2 1.4 77
2019-02-16 18:00:00 18 17 Norte 32 Norte 0 1017.5 -0.7 80
2019-02-16 17:00:00 18.3 13 Norte 36 Noroeste 0 1017.3 -1.5 80
2019-02-16 16:00:00 18.8 17 Noroeste 50 Norte 0 1016.8 -2.9 79
2019-02-16 15:00:00 17.9 19 Norte 49 Noroeste 0.2 1018.2 -1.8 84
2019-02-16 14:00:00 17.6 16 Noroeste 35 Noroeste 0.2 1018.8 -1.3 85
2019-02-16 13:00:00 16.4 13 Norte 38 Noroeste 1.3 1019.7 0.2 94
2019-02-16 12:00:00 16.2 17 Norte 44 Norte 1.1 1020 1.1 92
2019-02-16 11:00:00 16.1 14 Norte 45 Noroeste 1.2 1020.1 1.8 92
2019-02-16 10:00:00 16.8 16 Norte 42 Noroeste 0 1019.5 1.8 85
2019-02-16 09:00:00 16.1 12 Norte 40 Norte 0.3 1018.9 1.6 92
2019-02-16 08:00:00 16.2 12 Norte 39 Nordeste 0.9 1018.3 1 88
2019-02-16 07:00:00 16.1 13 Norte 37 Noroeste 1.1 1017.7 0.5 87
2019-02-16 06:00:00 15.8 15 Norte 40 Norte 1 1017.3 -0.2 89
2019-02-16 05:00:00 16 15 Norte 40 Noroeste 0.8 1017.3 -0.6 87
2019-02-16 04:00:00 16.5 15 Noroeste 52 Nordeste 0.6 1017.2 -1.1 80
2019-02-16 03:00:00 16.3 13 Norte 46 Norte 0.2 1017.5 -0.6 83
2019-02-16 02:00:00 16.7 14 Norte 40 Nordeste 0.1 1017.9 -0.2 78
2019-02-16 01:00:00 17 10 Norte 41 Nordeste 0.1 1018.3 0 77
2019-02-16 00:00:00 17.6 15 Norte 45 Nordeste 0 1018.1 0.5 74
2019-02-15 23:00:00 17.6 12 Norte 54 Nordeste 0 1018.1 1.1 72
2019-02-15 22:00:00 17.7 11 Norte 43 Noroeste 0 1018.3 1.6 72
2019-02-15 21:00:00 17.6 13 Norte 35 Norte 0 1017.6 1.5 73
2019-02-15 20:00:00 17.5 15 Norte 41 Norte 0 1017 0.6 72
2019-02-15 19:00:00 17.6 11 Norte 39 Nordeste 0 1016.7 0.9 71
2019-02-15 18:00:00 18.3 17 Norte 48 Nordeste 0 1016.1 -0.3 68
2019-02-15 17:00:00 19 8 Noroeste 49 Noroeste 0 1016.4 -0.2 67
2019-02-15 16:00:00 18.5 15 Norte 40 Noroeste 0 1015.8 -1.5 69
2019-02-15 15:00:00 18.7 14 Noroeste 39 Noroeste 0 1016.4 -1.7 70
2019-02-15 14:00:00 19.1 14 Noroeste 50 Noroeste 0 1016.6 -2 68
2019-02-15 13:00:00 18.8 18 Noroeste 41 Noroeste 0 1017.3 -0.6 70
2019-02-15 12:00:00 17.8 8 Norte 22 Noroeste 1.8 1018.1 0.8 78
2019-02-15 11:00:00 15.9 14 Noroeste 30 Noroeste 1.1 1018.6 1.4 86
2019-02-15 10:00:00 20.7 6 Sudoeste 29 Oeste 0 1017.9 1.4 53
2019-02-15 09:00:00 18.3 7 Norte 19 Nordeste 0 1017.3 0.8 63
2019-02-15 08:00:00 17.8 6 Oeste 31 Oeste 0 1017.2 0.8 63
2019-02-15 07:00:00 18.6 3 Sur 17 Noroeste 0 1016.5 0 68
2019-02-15 06:00:00 17.8 12 Noroeste 21 Noroeste 0 1016.5 -0.1 71
2019-02-15 05:00:00 17.4 4 Noroeste 11 Noroeste 0 1016.4 -0.3 83
2019-02-15 04:00:00 17.6 5 Noroeste 11 Noroeste 0 1016.5 -0.5 84
2019-02-15 03:00:00 17.9 7 Noroeste 15 Noroeste 0 1016.6 -0.9 84
2019-02-15 02:00:00 18 6 Noroeste 13 Noroeste 0 1016.7 -1.4 86
2019-02-15 01:00:00 18.7 2 Noroeste 23 Sur 0 1017 -1.4 87
2019-02-15 00:00:00 19.3 13 Sudeste 22 Sudeste 0 1017.5 -0.5 89
2019-02-14 23:00:00 19.5 15 Sudeste 24 Sur 0 1018.1 0 87
2019-02-14 22:00:00 19.4 13 Sudeste 29 Sur 0 1018.4 1 88
2019-02-14 21:00:00 19.7 15 Sur 23 Sudeste 0 1018 1 86
2019-02-14 20:00:00 19.7 10 Sur 22 Sur 0 1018.1 0.8 87
2019-02-14 19:00:00 20 11 Sur 24 Sur 0 1017.4 -0.3 86
2019-02-14 18:00:00 20.3 17 Sur 23 Sur 0 1017 -0.7 87
2019-02-14 17:00:00 20.8 14 Sur 25 Sur 0 1017.3 -1.5 82
2019-02-14 16:00:00 21.5 15 Sur 26 Sur 0 1017.7 -1.9 74
2019-02-14 15:00:00 21.5 16 Sur 22 Sur 0 1017.7 -2.5 74
2019-02-14 14:00:00 21.8 15 Sur 23 Sur 0 1018.8 -1.6 71
2019-02-14 13:00:00 22 13 Sur 24 Sur 0 1019.6 -0.9 68
2019-02-14 12:00:00 22.2 12 Sur 20 Sur 0 1020.2 0.2 64
2019-02-14 11:00:00 22.3 10 Sur 23 Sur 0 1020.4 0.8 59
2019-02-14 10:00:00 22.6 15 Sur 24 Sur 0 1020.5 1.7 48
2019-02-14 09:00:00 23.5 7 Sur 20 Sudoeste 0 1020 1.8 35
2019-02-14 08:00:00 19.3 6 Norte 13 Noroeste 0 1019.6 1.8 32
2019-02-14 07:00:00 19.4 5 Noroeste 15 Noroeste 0 1018.8 1.6 31
2019-02-14 06:00:00 20.1 5 Norte 14 Noroeste 0 1018.2 0.2 29
2019-02-14 05:00:00 20.7 5 Noroeste 15 Sudoeste 0 1017.8 -0.5 29
2019-02-14 04:00:00 22.1 5 Oeste 16 Sudoeste 0 1017.2 -1.3 29
2019-02-14 03:00:00 23.1 5 Sudoeste 17 Sudoeste 0 1018 -1 30
2019-02-14 02:00:00 23.3 13 Sur 24 Sur 0 1018.3 -1.3 34
2019-02-14 01:00:00 22.7 19 Sur 25 Sur 0 1018.5 -1.1 38
2019-02-14 00:00:00 22.5 12 Sur 24 Sur 0 1019 -0.4 38
2019-02-13 23:00:00 22 14 Sur 25 Sur 0 1019.6 0.7 44
2019-02-13 22:00:00 21.2 9 Sur 21 Sur 0 1019.6 0.9 53
2019-02-13 21:00:00 20.6 7 Sur 22 Sur 0 1019.4 0.8 61
2019-02-13 20:00:00 20.7 15 Sur 22 Sur 0 1018.9 0.2 61
2019-02-13 19:00:00 21.2 17 Sur 24 Sur 0 1018.7 -0.2 55
2019-02-13 18:00:00 22.3 13 Sur 25 Sur 0 1018.6 -0.6 51
2019-02-13 17:00:00 22.8 10 Sur 27 Sur 0 1018.7 -0.9 48
2019-02-13 16:00:00 23.1 10 Sur 26 Sur 0 1018.9 -1.1 50
2019-02-13 15:00:00 22.5 15 Sur 35 Sudeste 0 1019.2 -1.4 52
2019-02-13 14:00:00 23.3 14 Sur 30 Sur 0 1019.6 -1 49
2019-02-13 13:00:00 23.3 13 Sur 30 Sur 0 1020 -0.4 47
2019-02-13 12:00:00 24.1 12 Sur 30 Sudoeste 0 1020.6 0.5 40
2019-02-13 11:00:00 25 5 Sur 28 Sur 0 1020.6 0.8 38
2019-02-13 10:00:00 21.8 8 Sur 18 Sur 0 1020.4 2 62
2019-02-13 09:00:00 20.7 4 Oeste 19 Sudoeste 0 1020.1 2 66
2019-02-13 08:00:00 19.5 8 Sudoeste 28 Sur 0 1019.8 1.8 80
2019-02-13 07:00:00 19.5 3 Nordeste 17 Norte 0 1018.4 0.3 71
2019-02-13 06:00:00 19.3 6 Noroeste 20 Sur 0 1018.1 -0.3 48
2019-02-13 05:00:00 21.3 10 Norte 21 Noroeste 0 1018 -0.8 29
2019-02-13 04:00:00 20.9 11 Noroeste 21 Noroeste 0 1018.1 -1.1 29
2019-02-13 03:00:00 21.1 12 Noroeste 20 Noroeste 0 1018.4 -1.1 29
2019-02-13 02:00:00 21.3 10 Norte 19 Noroeste 0 1018.8 -1.1 30
2019-02-13 01:00:00 21.2 11 Noroeste 19 Noroeste 0 1019.2 -0.7 32
2019-02-13 00:00:00 20.9 9 Norte 19 Noroeste 0 1019.5 -0.2 33
2019-02-12 23:00:00 20.8 9 Noroeste 17 Noroeste 0 1019.9 0.5 35
2019-02-12 22:00:00 21.1 9 Noroeste 17 Noroeste 0 1019.9 0.8 36
2019-02-12 21:00:00 21.1 8 Noroeste 15 Noroeste 0 1019.7 0.6 38
2019-02-12 20:00:00 21.4 8 Norte 12 Noroeste 0 1019.4 0.4 41
2019-02-12 19:00:00 22.8 4 Sur 13 Sur 0 1019.1 -0.2 42
2019-02-12 18:00:00 24.1 7 Sudeste 11 Sur 0 1019.1 -0.5 42
2019-02-12 17:00:00 26 0 Calma 10 Sur 0 1019 -0.7 38
2019-02-12 16:00:00 24.9 3 Sur 19 Sur 0 1019.3 -0.4 44
2019-02-12 15:00:00 22.7 16 Sur 27 Sur 0 1019.6 -0.4 62
2019-02-12 14:00:00 21 18 Sur 32 Sur 0 1019.7 -0.4 82
2019-02-12 13:00:00 23.2 6 Sudeste 13 Sudeste 0 1019.7 0 75
2019-02-12 12:00:00 23.1 3 Sudeste 15 Sudeste 0 1020 0.8 74
2019-02-12 11:00:00 24 2 Sudeste 11 Sudeste 0 1020.1 1.2 65
2019-02-12 10:00:00 26.7 0 Calma 17 Noroeste 0 1019.7 1.1 32
2019-02-12 09:00:00 22.7 9 Norte 20 Noroeste 0 1019.2 0.7 32
2019-02-12 08:00:00 21 11 Noroeste 22 Noroeste 0 1018.9 0.5 32
2019-02-12 07:00:00 21.2 12 Noroeste 21 Noroeste 0 1018.6 0.2 32
2019-02-12 06:00:00 21 10 Noroeste 19 Noroeste 0 1018.5 -0.5 33
2019-02-12 05:00:00 20.7 12 Noroeste 22 Noroeste 0 1018.4 -0.7 34
2019-02-12 04:00:00 20.2 11 Noroeste 18 Noroeste 0 1018.4 -0.8 37
2019-02-12 03:00:00 18.7 0 Calma 11 Noroeste 0 1019 -0.6 36
2019-02-12 02:00:00 20.1 8 Noroeste 13 Noroeste 0 1019.1 -0.7 35
2019-02-12 01:00:00 20.4 8 Noroeste 14 Noroeste 0 1019.2 -0.8 34
2019-02-12 00:00:00 21.1 8 Noroeste 18 Noroeste 0 1019.6 0 33
2019-02-11 23:00:00 21.5 10 Noroeste 18 Noroeste 0 1019.8 0.6 32
2019-02-11 22:00:00 21.5 8 Noroeste 14 Noroeste 0 1020 1.2 32
2019-02-11 21:00:00 21.2 5 Noroeste 8 Noroeste 0 1019.6 1 35
2019-02-11 20:00:00 21.9 5 Noroeste 13 Sudoeste 0 1019.2 0.5 35
2019-02-11 19:00:00 23.6 5 Sudoeste 17 Sur 0 1018.8 0.2 35
2019-02-11 18:00:00 24.4 9 Sur 20 Sur 0 1018.6 -0.2 37
2019-02-11 17:00:00 24.5 6 Sur 27 Sur 0 1018.7 -0.4 40
2019-02-11 16:00:00 23.9 11 Sur 29 Sur 0 1018.6 -1.2 41
2019-02-11 15:00:00 25.6 11 Sur 26 Sudoeste 0 1018.8 -1.4 35
2019-02-11 14:00:00 26.3 9 Sur 18 Sur 0 1019.1 -1 35
2019-02-11 13:00:00 25.9 10 Sur 30 Sur 0 1019.8 0 36
2019-02-11 12:00:00 26.1 9 Sur 34 Sudeste 0 1020.2 1.2 36
2019-02-11 11:00:00 25.5 4 Sur 20 Sur 0 1020.1 1.8 39
2019-02-11 10:00:00 25.3 7 Sur 26 Sur 0 1019.8 2.1 38
2019-02-11 09:00:00 24.4 5 Sur 21 Sur 0 1019 1.8 39
2019-02-11 08:00:00 22 4 Norte 15 Noroeste 0 1018.3 1.2 36
2019-02-11 07:00:00 21.5 6 Norte 14 Nordeste 0 1017.7 0.6 35
2019-02-11 06:00:00 20.9 5 Noroeste 14 Norte 0 1017.2 -0.3 35
2019-02-11 05:00:00 21.4 5 Norte 17 Noroeste 0 1017.1 -0.8 34
2019-02-11 04:00:00 20.6 10 Noroeste 20 Noroeste 0 1017.1 -0.9 35
2019-02-11 03:00:00 21.2 10 Noroeste 22 Noroeste 0 1017.5 -0.7 34
2019-02-11 02:00:00 21 10 Noroeste 22 Noroeste 0 1017.9 -0.7 34
2019-02-11 01:00:00 21 11 Norte 27 Noroeste 0 1018 -0.5 34
2019-02-11 00:00:00 20.9 13 Noroeste 25 Noroeste 0 1018.2 -0.5 35
2019-02-10 23:00:00 21.2 13 Noroeste 24 Noroeste 0 1018.6 0.2 35
2019-02-10 22:00:00 20.4 11 Noroeste 16 Noroeste 0 1018.5 0.6 38
2019-02-10 21:00:00 20.8 8 Noroeste 14 Noroeste 0 1018.7 1 39
2019-02-10 20:00:00 21.3 6 Noroeste 13 Noroeste 0 1018.4 0.7 39
2019-02-10 19:00:00 22.9 2 Noroeste 12 Oeste 0 1017.9 0.5 40
2019-02-10 18:00:00 25 2 Norte 9 Sur 0 1017.7 0.1 40
2019-02-10 17:00:00 24.4 4 Norte 9 Norte 0 1017.7 -0.7 48
2019-02-10 16:00:00 24.7 0 Calma 14 Sur 0 1017.4 -1.9 45
2019-02-10 15:00:00 25 4 Sur 17 Sur 0 1017.6 -2.3 42
2019-02-10 14:00:00 26.7 4 Sur 13 Sudeste 0 1018.4 -1.9 33
2019-02-10 13:00:00 25.1 8 Sur 13 Sur 0 1019.3 -0.8 38
2019-02-10 12:00:00 24.9 3 Sur 9 Sudeste 0 1019.9 0.2 48
2019-02-10 11:00:00 24 2 Este 12 Sudeste 0 1020.3 1 47
2019-02-10 10:00:00 22.9 3 Sur 14 Noroeste 0 1020.1 1.4 38
2019-02-10 09:00:00 18.6 8 Norte 15 Noroeste 0 1019.7 1.2 42
2019-02-10 08:00:00 16.6 6 Noroeste 10 Noroeste 0 1019.3 0.9 46
2019-02-10 07:00:00 18.3 4 Este 22 Noroeste 0 1018.7 0.3 59
2019-02-10 06:00:00 18.4 8 Noroeste 19 Noroeste 0 1018.5 -0.1 38
2019-02-10 05:00:00 18.5 12 Noroeste 20 Noroeste 0 1018.4 -0.4 37
2019-02-10 04:00:00 19.3 11 Noroeste 23 Noroeste 0 1018.4 -1.2 36
2019-02-10 03:00:00 19.7 9 Noroeste 21 Norte 0 1018.6 -1.1 37
2019-02-10 02:00:00 16.3 10 Noroeste 17 Noroeste 0 1018.8 -0.7 43
2019-02-10 01:00:00 16 6 Noroeste 11 Noroeste 0 1019.6 0.4 45
2019-02-10 00:00:00 16.4 7 Noroeste 11 Noroeste 0 1019.7 0.8 45
2019-02-09 23:00:00 17.1 6 Noroeste 15 Noroeste 0 1019.5 1.1 46
2019-02-09 22:00:00 16.8 10 Noroeste 18 Noroeste 0 1019.2 1 49
2019-02-09 21:00:00 17.8 10 Norte 15 Norte 0 1018.9 1.1 50
2019-02-09 20:00:00 17.6 6 Noroeste 8 Noroeste 0 1018.4 0.7 62
2019-02-09 19:00:00 18.6 0 Calma 16 Sur 0 1018.2 0.3 79
2019-02-09 18:00:00 19.3 11 Sur 15 Sur 0 1017.8 -0.7 77
2019-02-09 17:00:00 20.5 4 Sudeste 13 Sur 0 1017.7 -1.6 73
2019-02-09 16:00:00 20.8 5 Sudeste 12 Este 0 1017.9 -2 72
2019-02-09 15:00:00 21.2 3 Este 12 Este 0 1018.5 -2.2 71
2019-02-09 14:00:00 21.1 3 Sudeste 13 Sudeste 0 1019.3 -1.5 71
2019-02-09 13:00:00 20.1 6 Este 14 Sur 0 1019.9 -0.4 71
2019-02-09 12:00:00 20.2 5 Este 12 Este 0 1020.7 0.8 71
2019-02-09 11:00:00 19.2 5 Sudeste 20 Sur 0 1020.8 1.4 73
2019-02-09 10:00:00 18.4 3 Sur 17 Sur 0 1020.3 1.6 68
2019-02-09 09:00:00 14.7 8 Norte 17 Noroeste 0 1019.9 1.3 58
2019-02-09 08:00:00 13.1 9 Norte 18 Noroeste 0 1019.4 0.6 65
2019-02-09 07:00:00 13.6 6 Norte 15 Noroeste 0 1018.7 0.1 68
2019-02-09 06:00:00 13.4 10 Noroeste 20 Noroeste 0 1018.6 -0.9 71
2019-02-09 05:00:00 13.1 9 Noroeste 16 Norte 0 1018.8 -1 70
2019-02-09 04:00:00 13.7 9 Noroeste 18 Noroeste 0 1018.6 -1.4 65
2019-02-09 03:00:00 13.6 10 Noroeste 18 Noroeste 0 1019.5 -0.8 64
2019-02-09 02:00:00 14.4 6 Noroeste 11 Noroeste 0 1019.8 -0.6 66
2019-02-09 01:00:00 14.6 6 Noroeste 14 Noroeste 0 1020 -0.3 68
2019-02-09 00:00:00 15.1 7 Noroeste 15 Noroeste 0 1020.3 0.5 71
2019-02-08 23:00:00 15.3 8 Norte 14 Noroeste 0 1020.4 0.8 74
2019-02-08 22:00:00 15.8 8 Noroeste 12 Norte 0 1020.3 0.8 77
2019-02-08 21:00:00 16.8 5 Noroeste 9 Noroeste 0 1019.8 0.5 83
2019-02-08 20:00:00 18.1 2 Sudeste 9 Sur 0 1019.6 0.1 81
2019-02-08 19:00:00 18.3 5 Sur 12 Sur 0 1019.5 0 79
2019-02-08 18:00:00 20 3 Sudeste 14 Sur 0 1019.3 -0.7 74
2019-02-08 17:00:00 19.5 8 Sur 16 Sudeste 0 1019.5 -1.3 74
2019-02-08 16:00:00 21.3 4 Este 22 Nordeste 0 1019.5 -1.8 70
2019-02-08 15:00:00 20.1 4 Sur 20 Sur 0 1020 -1.8 72
2019-02-08 14:00:00 21.1 5 Sudeste 17 Sur 0 1020.8 -0.8 71
2019-02-08 13:00:00 20.6 5 Sudeste 13 Sudeste 0 1021.3 0.1 75
2019-02-08 12:00:00 19.4 9 Sur 15 Sur 0 1021.8 1 79
2019-02-08 11:00:00 19 7 Sudeste 14 Sur 0 1021.6 1 77
2019-02-08 10:00:00 19.3 0 Calma 13 Norte 0 1021.2 1.3 65
2019-02-08 09:00:00 14.9 8 Norte 14 Noroeste 0 1020.8 1.3 62
2019-02-08 08:00:00 13.7 8 Noroeste 18 Noroeste 0 1020.6 0.9 60
2019-02-08 07:00:00 13.5 8 Noroeste 14 Noroeste 0 1019.9 0.1 62
2019-02-08 06:00:00 13.8 6 Noroeste 16 Noroeste 0 1019.5 -0.7 63
2019-02-08 05:00:00 13.9 9 Noroeste 15 Norte 0 1019.7 -0.8 60
2019-02-08 04:00:00 14.1 10 Noroeste 15 Noroeste 0 1019.8 -1.2 62
2019-02-08 03:00:00 14.5 10 Noroeste 16 Noroeste 0 1020.2 -0.9 61
2019-02-08 02:00:00 14.8 8 Noroeste 15 Noroeste 0 1020.5 -0.2 62
2019-02-08 01:00:00 15 9 Noroeste 15 Noroeste 0 1021 0.4 66
2019-02-08 00:00:00 15.4 8 Noroeste 17 Noroeste 0 1021.1 1 67
2019-02-07 23:00:00 15.7 8 Noroeste 14 Noroeste 0 1020.7 0.7 72
2019-02-07 22:00:00 16.4 7 Norte 10 Norte 0 1020.6 0.9 76
2019-02-07 21:00:00 17.5 4 Noroeste 8 Noroeste 0 1020.1 0.3 80
2019-02-07 20:00:00 18.5 0 Calma 7 Sudeste 0 1020 0 80
2019-02-07 19:00:00 18.9 5 Sur 12 Sur 0 1019.7 -0.9 77
2019-02-07 18:00:00 19.8 9 Sur 13 Sur 0 1019.8 -0.8 73
2019-02-07 17:00:00 22.1 2 Sudeste 12 Este 0 1020 -1.2 66
2019-02-07 16:00:00 22 3 Este 18 Sur 0 1020.6 -1.3 65
2019-02-07 15:00:00 22 7 Este 18 Este 0 1020.6 -1.6 64
2019-02-07 14:00:00 21.9 7 Este 17 Este 0 1021.2 -1.1 62
2019-02-07 13:00:00 23 3 Este 13 Este 0 1021.9 0 55
2019-02-07 12:00:00 22.1 5 Sudeste 13 Sur 0 1022.2 0.7 50
2019-02-07 11:00:00 21.2 7 Sudeste 11 Sudeste 0 1022.3 1.1 50
2019-02-07 10:00:00 20.5 0 Calma 13 Noroeste 0 1021.9 1.2 39
2019-02-07 09:00:00 15.7 5 Norte 16 Noroeste 0 1021.5 1.2 40
2019-02-07 08:00:00 14 9 Noroeste 14 Noroeste 0 1021.2 0.9 40
2019-02-07 07:00:00 14.2 7 Noroeste 12 Noroeste 0 1020.7 0 39
2019-02-07 06:00:00 14.9 6 Norte 13 Noroeste 0 1020.3 -0.9 39
2019-02-07 05:00:00 14.9 9 Noroeste 16 Noroeste 0 1020.3 -1.2 40
2019-02-07 04:00:00 15.6 11 Noroeste 17 Noroeste 0 1020.7 -1.1 41
2019-02-07 03:00:00 15.5 7 Norte 13 Noroeste 0 1021.2 -0.5 44
2019-02-07 02:00:00 15.6 9 Noroeste 12 Noroeste 0 1021.5 -0.3 45
2019-02-07 01:00:00 15.9 6 Noroeste 10 Noroeste 0 1021.8 0.1 49
2019-02-07 00:00:00 16.8 2 Noroeste 10 Sudoeste 0 1021.7 0.3 56
2019-02-06 23:00:00 18.1 0 Calma 12 Sudeste 0 1021.8 0.9 67
2019-02-06 22:00:00 18.4 0 Calma 7 Este 0 1021.7 0.9 59
2019-02-06 21:00:00 18.6 0 Calma 12 Noroeste 0 1021.4 0.7 38
2019-02-06 20:00:00 19.1 9 Noroeste 14 Noroeste 0 1020.9 0.2 39
2019-02-06 19:00:00 20.4 2 Oeste 9 Sudeste 0 1020.8 0.1 42
2019-02-06 18:00:00 21.5 7 Sur 13 Sur 0 1020.7 -0.3 42
2019-02-06 17:00:00 22.3 3 Sur 13 Sudoeste 0 1020.7 -0.6 46
2019-02-06 16:00:00 22.8 4 Sur 17 Sur 0 1020.7 -1.4 38
2019-02-06 15:00:00 23.4 7 Sur 20 Sur 0 1021 -1.3 36
2019-02-06 14:00:00 22.9 11 Sur 23 Sur 0 1021.3 -1.1 35
2019-02-06 13:00:00 21.1 12 Sur 24 Sur 0 1022.1 0.1 58
2019-02-06 12:00:00 21.4 8 Sudeste 18 Sur 0 1022.3 1 66
2019-02-06 11:00:00 20.5 13 Sur 17 Sur 0 1022.4 1.4 59
2019-02-06 10:00:00 22 0 Calma 13 Noroeste 0 1022 1.5 35
2019-02-06 09:00:00 17.9 8 Noroeste 17 Noroeste 0 1021.3 1.2 36
2019-02-06 08:00:00 16.6 12 Noroeste 21 Norte 0 1021 0.8 37
2019-02-06 07:00:00 16.7 12 Noroeste 21 Noroeste 0 1020.5 -0.1 37
2019-02-06 06:00:00 17.5 11 Norte 24 Noroeste 0 1020.1 -0.6 36
2019-02-06 05:00:00 17.5 15 Noroeste 24 Noroeste 0 1020.2 -0.7 37
2019-02-06 04:00:00 16.8 10 Norte 23 Noroeste 0 1020.6 -0.6 37
2019-02-06 03:00:00 17.1 11 Norte 23 Noroeste 0 1020.7 -0.8 36
2019-02-06 02:00:00 17.6 11 Norte 25 Noroeste 0 1020.9 -0.7 37
2019-02-06 01:00:00 17.4 15 Noroeste 24 Noroeste 0 1021.2 -0.4 40
2019-02-06 00:00:00 17.4 11 Noroeste 24 Noroeste 0 1021.5 0.1 43
2019-02-05 23:00:00 17.4 9 Noroeste 18 Noroeste 0 1021.6 0.6 44
2019-02-05 22:00:00 17.5 8 Noroeste 13 Noroeste 0 1021.6 1.1 47
2019-02-05 21:00:00 17.6 6 Noroeste 12 Noroeste 0 1021.4 1 48
2019-02-05 20:00:00 18.6 4 Sudoeste 9 Sudoeste 0 1021 0.5 54
2019-02-05 19:00:00 19.3 3 Sudoeste 10 Sudoeste 0 1020.5 -0.1 49
2019-02-05 18:00:00 20.3 4 Sur 9 Sur 0 1020.4 -0.6 52
2019-02-05 17:00:00 20.4 6 Sur 13 Sur 0 1020.5 -1 56
2019-02-05 16:00:00 20.7 8 Sur 17 Sudeste 0 1020.6 -1.6 58
2019-02-05 15:00:00 20.7 10 Sudeste 23 Sudeste 0 1021 -1.7 59
2019-02-05 14:00:00 20.5 17 Sur 28 Sur 0 1021.5 -1.3 57
2019-02-05 13:00:00 20.4 19 Sudeste 28 Sudeste 0 1022.2 0.1 56
2019-02-05 12:00:00 20.8 11 Sudeste 29 Sudeste 0 1022.7 1.2 59
2019-02-05 11:00:00 20.8 8 Sudeste 28 Sudeste 0 1022.8 1.9 56
2019-02-05 10:00:00 20.6 8 Sudeste 28 Sudeste 0 1022.1 1.9 54
2019-02-05 09:00:00 20.3 4 Este 29 Sudeste 0 1021.5 1.8 53
2019-02-05 08:00:00 20 4 Este 26 Este 0 1020.9 1.3 54
2019-02-05 07:00:00 18.2 4 Nordeste 9 Nordeste 0 1020.2 0.7 53
2019-02-05 06:00:00 18.2 3 Norte 14 Noroeste 0 1019.7 0.1 52
2019-02-05 05:00:00 18 6 Norte 13 Noroeste 0 1019.6 0.1 50
2019-02-05 04:00:00 18.1 5 Norte 17 Noroeste 0 1019.5 -0.2 49
2019-02-05 03:00:00 18.3 9 Noroeste 18 Noroeste 0 1019.6 -0.1 47
2019-02-05 02:00:00 18.4 10 Noroeste 19 Noroeste 0 1019.5 0.1 46
2019-02-05 01:00:00 18.6 11 Noroeste 21 Noroeste 0 1019.7 0.4 45
2019-02-05 00:00:00 19.3 12 Noroeste 19 Noroeste 0 1019.7 0.7 44
2019-02-04 23:00:00 19.6 11 Noroeste 18 Noroeste 0 1019.4 0.8 45
2019-02-04 22:00:00 19.8 12 Noroeste 20 Noroeste 0 1019.3 1.4 46
2019-02-04 21:00:00 20.2 7 Norte 18 Noroeste 0 1019 1.4 48
2019-02-04 20:00:00 20.3 7 Norte 15 Norte 0 1018.6 1.2 51
2019-02-04 19:00:00 20.6 2 Norte 15 Nordeste 0 1017.9 0.4 59
2019-02-04 18:00:00 21.4 4 Nordeste 18 Este 0 1017.6 -0.3 59
2019-02-04 17:00:00 21.2 9 Norte 20 Nordeste 0 1017.4 -0.9 65
2019-02-04 16:00:00 22.3 5 Sur 11 Sudeste 0 1017.5 -1.5 57
2019-02-04 15:00:00 20.2 8 Sur 18 Sur 0 1017.9 -1.5 74
2019-02-04 14:00:00 20 10 Sur 23 Sur 0 1018.3 -1.5 73
2019-02-04 13:00:00 19.4 12 Sur 19 Sur 0 1019 -0.4 75
2019-02-04 12:00:00 19.4 10 Sudeste 21 Sudeste 0 1019.4 0.3 74
2019-02-04 11:00:00 19.6 5 Sudeste 21 Noroeste 0 1019.8 1.1 72
2019-02-04 10:00:00 19.1 11 Noroeste 22 Noroeste 0 1019.4 1.7 68
2019-02-04 09:00:00 17.7 14 Noroeste 27 Noroeste 0 1019.1 1.7 71
2019-02-04 08:00:00 16.8 9 Noroeste 31 Noroeste 0 1018.7 1.2 73
2019-02-04 07:00:00 17 14 Noroeste 39 Noroeste 0 1017.7 -0.2 74
2019-02-04 06:00:00 17 16 Noroeste 43 Noroeste 0 1017.4 -1 74
2019-02-04 05:00:00 17 19 Noroeste 46 Oeste 0 1017.5 -1.4 73
2019-02-04 04:00:00 17 17 Noroeste 47 Noroeste 0 1017.9 -1.6 74
2019-02-04 03:00:00 16.9 12 Norte 33 Norte 0 1018.4 -1.1 74
2019-02-04 02:00:00 17.1 15 Noroeste 44 Noroeste 0 1018.9 -0.6 74
2019-02-04 01:00:00 17.3 16 Norte 48 Noroeste 0 1019.5 0.2 74
2019-02-04 00:00:00 17.3 15 Norte 41 Norte 0 1019.5 0.4 74
2019-02-03 23:00:00 17.2 15 Noroeste 40 Oeste 0 1019.5 0.8 74
2019-02-03 22:00:00 17.3 18 Noroeste 46 Oeste 0 1019.3 0.9 72
2019-02-03 21:00:00 17.4 19 Noroeste 42 Noroeste 0 1019.1 0.7 71
2019-02-03 20:00:00 17.6 18 Noroeste 47 Norte 0 1018.7 0.3 71
2019-02-03 19:00:00 17.8 20 Noroeste 42 Nordeste 0 1018.4 0.1 73
2019-02-03 18:00:00 18.5 17 Noroeste 44 Noroeste 0 1018.4 -0.1 70
2019-02-03 17:00:00 18.8 16 Noroeste 41 Oeste 0 1018.4 -0.7 68
2019-02-03 16:00:00 19.2 18 Noroeste 45 Norte 0 1018.3 -1.7 66
2019-02-03 15:00:00 19.3 20 Noroeste 50 Noroeste 0 1018.5 -1.6 66
2019-02-03 14:00:00 19.4 20 Noroeste 50 Oeste 0 1019.1 -1.5 65
2019-02-03 13:00:00 19.6 19 Noroeste 46 Norte 0 1020 -0.3 65
2019-02-03 12:00:00 19.2 21 Noroeste 48 Noroeste 0 1020.1 -0.6 65
2019-02-03 11:00:00 18.8 18 Noroeste 45 Norte 0 1020.6 0.6 67
2019-02-03 10:00:00 18.2 18 Norte 45 Norte 0 1020.3 0.8 67
2019-02-03 09:00:00 17.6 17 Noroeste 41 Nordeste 0 1020.7 1.7 67
2019-02-03 08:00:00 17.1 13 Norte 36 Norte 0 1020 1.6 67
2019-02-03 07:00:00 17.3 14 Norte 42 Nordeste 0 1019.5 0.6 68
2019-02-03 06:00:00 17.4 12 Norte 43 Noroeste 0 1019 -0.1 70
2019-02-03 05:00:00 17.3 15 Noroeste 48 Noroeste 0 1018.4 -1.3 71
2019-02-03 04:00:00 17.3 18 Norte 50 Noroeste 0 1018.9 -1 71
2019-02-03 03:00:00 17.3 22 Noroeste 46 Noroeste 0 1019.1 -1 68
2019-02-03 02:00:00 17.3 18 Norte 49 Noroeste 0 1019.7 -0.8 68
2019-02-03 01:00:00 17.2 20 Noroeste 50 Noroeste 0 1019.9 -0.6 67
2019-02-03 00:00:00 17.2 24 Noroeste 50 Noroeste 0 1020.1 -0.1 67
2019-02-02 23:00:00 17.2 16 Norte 48 Noroeste 0 1020.5 1 65
2019-02-02 22:00:00 17.3 20 Norte 54 Noroeste 0 1020.5 1.4 67
2019-02-02 21:00:00 17.3 18 Noroeste 54 Noroeste 0 1020.2 1.5 68
2019-02-02 20:00:00 17.3 21 Noroeste 52 Noroeste 0 1019.5 0.6 69
2019-02-02 19:00:00 17.7 21 Norte 52 Noroeste 0 1019.1 -0.1 67
2019-02-02 18:00:00 18.1 16 Norte 46 Noroeste 0 1018.7 -0.9 68
2019-02-02 17:00:00 18.7 14 Noroeste 48 Nordeste 0 1018.9 -1 68
2019-02-02 16:00:00 19.6 12 Norte 43 Noroeste 0 1019.2 -1.5 65
2019-02-02 15:00:00 19.3 15 Norte 49 Noroeste 0 1019.6 -1.4 63
2019-02-02 14:00:00 19.2 18 Noroeste 44 Noroeste 0 1019.9 -1 64
2019-02-02 13:00:00 20.3 11 Noroeste 40 Noroeste 0 1020.7 0.1 60
2019-02-02 12:00:00 19.2 16 Norte 41 Norte 0 1021 1.1 63
2019-02-02 11:00:00 19 18 Norte 53 Noroeste 0 1020.9 1.7 66
2019-02-02 10:00:00 18.5 17 Norte 42 Norte 0 1020.6 2.1 72
2019-02-02 09:00:00 17.9 12 Noroeste 40 Noroeste 0 1019.9 2.1 74
2019-02-02 08:00:00 17.3 17 Norte 42 Noroeste 0 1019.2 1.3 83
2019-02-02 07:00:00 17.5 12 Norte 43 Noroeste 0 1018.5 0.7 84
2019-02-02 06:00:00 17.5 18 Norte 42 Noroeste 0 1017.8 0 86
2019-02-02 05:00:00 17.6 13 Norte 38 Noroeste 0 1017.9 0.4 88
2019-02-02 04:00:00 18.3 12 Norte 39 Norte 0 1017.8 0 89
2019-02-02 03:00:00 18 14 Norte 33 Noroeste 0 1017.8 -0.1 92
2019-02-02 02:00:00 18.3 13 Noroeste 32 Norte 0 1017.5 -0.3 90
2019-02-02 01:00:00 18.8 18 Norte 42 Nordeste 0 1017.8 0.4 83
2019-02-02 00:00:00 19 13 Norte 30 Noroeste 0 1017.9 1.1 83
2019-02-01 23:00:00 19 14 Norte 40 Noroeste 0 1017.8 1.4 83
2019-02-01 22:00:00 18.8 13 Norte 37 Nordeste 0 1017.4 1.6 83
2019-02-01 21:00:00 18.8 15 Norte 31 Noroeste 0 1016.8 1.1 84
2019-02-01 20:00:00 18.6 13 Norte 36 Nordeste 0 1016.4 -- 87
2019-02-01 19:00:00 18.4 12 Norte 49 Norte 0 1015.8 -0.2 86
2019-02-01 18:00:00 19.8 14 Norte 41 Oeste 0 1015.7 -0.4 77
2019-02-01 17:00:00 -- 11 Noroeste -- -- -- -- -- --
2019-02-01 16:00:00 20.9 6 Noroeste 32 Nordeste 0 1016 -2.2 69
2019-02-01 15:00:00 20.4 8 Sudeste 31 Sur 0 1016.1 -2.6 70
2019-02-01 14:00:00 19.8 13 Sur 26 Sur 0 1017.3 -1.3 71
2019-02-01 13:00:00 19.8 11 Sur 33 Norte 0 1018.2 0.1 67
2019-02-01 12:00:00 19.9 12 Norte 39 Oeste 0 1018.7 0.8 65
2019-02-01 11:00:00 19.5 11 Noroeste 32 Noroeste 0 1018.6 1 67
2019-02-01 10:00:00 18.5 9 Noroeste 32 Este 0 1018.1 0.9 68
2019-02-01 09:00:00 17.8 10 Norte 27 Noroeste 0 1017.9 0.6 70
2019-02-01 08:00:00 17.2 12 Norte 28 Norte 0 1017.6 0.2 70
2019-02-01 07:00:00 17.4 12 Norte 33 Norte 0 1017.2 -0.7 68
2019-02-01 06:00:00 17.4 7 Norte 23 Norte 0 1017.3 -1.2 68
2019-02-01 05:00:00 17.6 9 Norte 20 Norte 0 1017.4 -1.2 68
2019-02-01 04:00:00 17.5 8 Norte 21 Oeste 0 1017.9 -0.7 66
2019-02-01 03:00:00 17.6 8 Noroeste 27 Noroeste 0 1018.5 -0.1 66
2019-02-01 02:00:00 17.6 8 Noroeste 25 Norte 0 1018.6 -0.3 67
2019-02-01 01:00:00 17.7 8 Norte 23 Noroeste 0 1018.6 -0.7 68
2019-02-01 00:00:00 17.8 9 Norte 23 Noroeste 0 1018.6 -0.4 69
2019-01-31 23:00:00 17.8 8 Noroeste 23 Noroeste 0 1018.9 0.3 68
2019-01-31 22:00:00 17.8 8 Noroeste 25 Noroeste 0 1019.3 1.2 68
2019-01-31 21:00:00 17.8 10 Norte 30 Oeste 0 1019 1.3 68
2019-01-31 20:00:00 18.1 9 Noroeste 19 Oeste 0 1018.6 1.2 69
2019-01-31 19:00:00 17.9 9 Noroeste 25 Norte 0 1018.1 0.6 66
2019-01-31 18:00:00 18.5 14 Noroeste 30 Norte 0 1017.7 -0.1 66
2019-01-31 17:00:00 19.2 13 Noroeste 35 Noroeste 0 1017.4 -1.1 64
2019-01-31 16:00:00 19.1 10 Noroeste 37 Noroeste 0 1017.5 -2.1 68
2019-01-31 15:00:00 18.5 14 Noroeste 34 Oeste 0 1017.8 -2.2 71
2019-01-31 14:00:00 17.5 13 Norte 27 Nordeste 0 1018.5 -1.6 80
2019-01-31 13:00:00 17.2 10 Norte 31 Oeste 0 1019.6 -0.2 83
2019-01-31 12:00:00 17.1 15 Noroeste 33 Noroeste 0 1020 0.4 81
2019-01-31 11:00:00 17.9 10 Noroeste 31 Noroeste 0 1020.1 1.1 77
2019-01-31 10:00:00 17.6 10 Norte 29 Nordeste 0 1019.8 1.6 75
2019-01-31 09:00:00 17.6 5 Noroeste 28 Noroeste 0 1019.6 1.2 68
2019-01-31 08:00:00 17.3 11 Norte 26 Norte 0 1019 0.2 69
2019-01-31 07:00:00 17.2 9 Norte 28 Norte 0 1018.2 -1 72
2019-01-31 06:00:00 17.1 8 Norte 30 Nordeste 0 1018.4 -1.2 73
2019-01-31 05:00:00 17.3 9 Norte 27 Nordeste 0 1018.8 -1.1 72
2019-01-31 04:00:00 16.8 6 Noroeste 15 Norte 0 1019.2 -0.9 74
2019-01-31 03:00:00 17 7 Noroeste 28 Noroeste 0 1019.6 -0.8 73
2019-01-31 02:00:00 17.2 13 Norte 40 Norte 0 1019.9 -0.3 73
2019-01-31 01:00:00 17 13 Norte 48 Norte 0 1020.1 -0.2 78
2019-01-31 00:00:00 17 15 Norte 40 Nordeste 0 1020.4 0.3 80
2019-01-30 23:00:00 17 14 Norte 41 Norte 0 1020.2 0.3 81
2019-01-30 22:00:00 17.2 12 Noroeste 33 Norte 0 1020.3 0.6 80
2019-01-30 21:00:00 17.3 14 Norte 41 Noroeste 0 1020.1 0.7 80
2019-01-30 20:00:00 16.9 14 Norte 43 Noroeste 0 1019.9 0.6 83
2019-01-30 19:00:00 17.5 16 Norte 41 Nordeste 0 1019.7 0.1 77
2019-01-30 18:00:00 17.8 11 Noroeste 28 Norte 0 1019.4 -0.5 77
2019-01-30 17:00:00 18.4 13 Noroeste 33 Norte 0 1019.3 -1.5 74
2019-01-30 16:00:00 19 9 Noroeste 34 Nordeste 0 1019.6 -2 74
2019-01-30 15:00:00 18.7 14 Norte 32 Norte 0 1019.9 -2 72
2019-01-30 14:00:00 19.3 14 Norte 41 Nordeste 0 1020.8 -1.3 73
2019-01-30 13:00:00 19.2 14 Noroeste 40 Noroeste 0 1021.6 -0.7 71
2019-01-30 12:00:00 19.1 12 Noroeste 33 Oeste 0 1021.9 0.1 70
2019-01-30 11:00:00 18.2 12 Noroeste 31 Noroeste 0 1022.1 0.5 77
2019-01-30 10:00:00 17.3 10 Noroeste 32 Oeste 0 1022.3 1.2 83
2019-01-30 09:00:00 17.1 14 Norte 39 Noroeste 0 1021.8 1.6 83
2019-01-30 08:00:00 16 13 Noroeste 42 Oeste 0 1021.6 1.7 91
2019-01-30 07:00:00 15.9 18 Noroeste 41 Noroeste 0 1021.1 1.2 89
2019-01-30 06:00:00 17.1 17 Norte 40 Norte 0 1020.2 0.1 79
2019-01-30 05:00:00 17.2 22 Norte 40 Noroeste 0 1019.9 -0.5 78
2019-01-30 04:00:00 17 15 Noroeste 38 Noroeste 0 1019.9 -1.5 81
2019-01-30 03:00:00 16.7 12 Norte 36 Norte 0 1020.1 -1.6 85
2019-01-30 02:00:00 17.1 20 Noroeste 41 Noroeste 0 1020.4 -1.4 84
2019-01-30 01:00:00 17 18 Norte 39 Noroeste 0 1021.4 -0.3 85
2019-01-30 00:00:00 17.5 12 Norte 35 Norte 0 1021.7 0.2 81
2019-01-29 23:00:00 17.6 17 Norte 36 Norte 0 1021.8 0.3 81
2019-01-29 22:00:00 17.4 16 Norte 33 Noroeste 0 1021.7 0.4 80
2019-01-29 21:00:00 17.8 17 Norte 38 Noroeste 0 1021.5 0.3 78
2019-01-29 20:00:00 17.5 18 Noroeste 40 Noroeste 0 1021.5 0.1 80
2019-01-29 19:00:00 17.7 17 Norte 38 Norte 0 1021.3 0.2 79
2019-01-29 18:00:00 17.8 18 Norte 48 Norte 0 1021.2 0.4 78
2019-01-29 17:00:00 18.6 14 Noroeste 40 Noroeste 0 1021.4 -0.9 75
2019-01-29 16:00:00 19.3 14 Noroeste 39 Nordeste 0 1021.1 -2.1 74
2019-01-29 15:00:00 19.4 14 Noroeste 42 Noroeste 0 1020.8 -2.7 74
2019-01-29 14:00:00 19.5 18 Noroeste 42 Noroeste 0 1022.3 -1.3 71
2019-01-29 13:00:00 19.3 15 Noroeste 45 Oeste 0 1023.2 -- 75
2019-01-29 12:00:00 19.4 16 Noroeste 42 Noroeste 0 1023.5 0.7 71
2019-01-29 11:00:00 18.9 18 Norte 46 Noroeste 0 1023.6 1.6 72
2019-01-29 10:00:00 -- -- -- -- -- -- -- -- --
2019-01-29 09:00:00 17.7 9 Noroeste 24 Oeste 0 1022.8 1.4 74
2019-01-29 08:00:00 16.8 12 Noroeste 23 Oeste 0 1022 0.7 74
2019-01-29 07:00:00 15.4 5 Noroeste 13 Oeste 0 1021.5 0 76
2019-01-29 06:00:00 15.9 6 Noroeste 16 Noroeste 0 1021.4 -0.7 76
2019-01-29 05:00:00 16.8 10 Noroeste 20 Oeste 0 1021.3 -1.3 75
2019-01-29 04:00:00 17.1 11 Norte 32 Norte 0 1021.5 -1.1 74
2019-01-29 03:00:00 17.3 12 Noroeste 34 Noroeste 0 1022.1 -0.8 74
2019-01-29 02:00:00 17.3 13 Noroeste 39 Noroeste 0 1022.6 -0.8 74
2019-01-29 01:00:00 17.5 16 Norte 35 Noroeste 0 1022.6 0.2 74
2019-01-29 00:00:00 17.2 21 Norte 37 Noroeste 0 1022.9 0.7 73
2019-01-28 23:00:00 17.6 12 Noroeste 36 Noroeste 0 1023.4 1.9 74
2019-01-28 22:00:00 17.5 15 Noroeste 44 Noroeste 0 1022.4 1.3 74
2019-01-28 21:00:00 17.4 13 Noroeste 44 Norte 0 1022.2 0.8 74
2019-01-28 20:00:00 17.6 17 Norte 48 Norte 0 1021.5 0.3 73
2019-01-28 19:00:00 17.8 24 Norte 47 Norte 0 1021.1 -0.3 73
2019-01-28 18:00:00 18.5 17 Noroeste 43 Noroeste 0 1021.4 -0.7 72
2019-01-28 17:00:00 19.1 15 Noroeste 49 Noroeste 0 1021.2 -1 72
2019-01-28 16:00:00 20 14 Noroeste 37 Oeste 0 1021.4 -1.7 69
2019-01-28 15:00:00 20 18 Noroeste 40 Oeste 0 1022.1 -1.5 68
2019-01-28 14:00:00 20.7 12 Norte 37 Noroeste 0 1022.2 -1.1 68
2019-01-28 13:00:00 20.5 9 Norte 35 Noroeste 0 1023.1 -0.6 68
2019-01-28 12:00:00 19.9 16 Noroeste 39 Nordeste 0 1023.6 0.5 68
2019-01-28 11:00:00 19.3 13 Norte 30 Noroeste 0 1023.3 0.5 71
2019-01-28 10:00:00 18.5 12 Noroeste 24 Oeste 0 1023.7 1.9 74
2019-01-28 09:00:00 17.8 13 Noroeste 31 Noroeste 0 1023.1 1.2 75
2019-01-28 08:00:00 17.7 12 Norte 31 Norte 0 1022.8 1.5 74
2019-01-28 07:00:00 17.6 15 Norte 37 Noroeste 0 1021.8 0.1 75
2019-01-28 06:00:00 17.8 13 Norte 46 Noroeste 0 1021.9 0.2 75
2019-01-28 05:00:00 17.9 12 Noroeste 32 Noroeste 0 1021.3 -0.3 76
2019-01-28 04:00:00 18 12 Noroeste 33 Noroeste 0 1021.7 -0.6 78
2019-01-28 03:00:00 18.1 11 Norte 35 Norte 0 1021.7 -1 75
2019-01-28 02:00:00 18.1 17 Norte 35 Norte 0 1021.6 -1.3 74
2019-01-28 01:00:00 18.1 16 Norte 41 Norte 0 1022.3 -0.8 75
2019-01-28 00:00:00 18.3 19 Norte 40 Norte 0 1022.7 0 73
2019-01-27 23:00:00 18.3 17 Norte 37 Norte 0 1022.9 0.3 74
2019-01-27 22:00:00 18.4 11 Noroeste 33 Oeste 0 1023.1 1.4 74
2019-01-27 21:00:00 18.5 10 Norte 33 Nordeste 0 1022.7 1.2 76
2019-01-27 20:00:00 18.8 6 Norte 38 Noroeste 0 1022.6 1.4 76
2019-01-27 19:00:00 18.7 14 Norte 37 Norte 0 1021.7 0.8 74
2019-01-27 18:00:00 19.3 12 Noroeste 35 Oeste 0 1021.5 0.6 71
2019-01-27 17:00:00 20.3 15 Noroeste 40 Noroeste 0 1021.2 -0.6 67
2019-01-27 16:00:00 19.7 15 Norte 33 Nordeste 0 1020.9 -1.4 71
2019-01-27 15:00:00 21 13 Norte 38 Nordeste 0 1020.9 -1.9 69
2019-01-27 14:00:00 20.9 4 Sudeste 14 Sur 0 1021.8 -1.3 72
2019-01-27 13:00:00 21.2 6 Sur 13 Sudeste 0 1022.3 -0.2 71
2019-01-27 12:00:00 21.9 3 Sudeste 13 Sudeste 0 1022.8 1.4 67
2019-01-27 11:00:00 20.8 3 Este 20 Este 0 1023.1 2.5 73
2019-01-27 10:00:00 19.8 8 Norte 32 Nordeste 0 1022.5 2.4 75
2019-01-27 09:00:00 18.3 14 Norte 36 Noroeste 0 1021.4 1.3 77
2019-01-27 08:00:00 17.8 12 Norte 24 Noroeste 0 1020.6 0.1 80
2019-01-27 07:00:00 16.8 9 Noroeste 16 Noroeste 0 1020.1 -0.2 81
2019-01-27 06:00:00 15.4 8 Norte 15 Noroeste 0 1020.1 -0.4 77
2019-01-27 05:00:00 15.5 8 Norte 15 Norte 0 1020.5 -0.2 79
2019-01-27 04:00:00 15.1 9 Noroeste 16 Noroeste 0 1020.3 -0.6 80
2019-01-27 03:00:00 15.2 8 Noroeste 15 Noroeste 0 1020.5 -0.1 80
2019-01-27 02:00:00 15.8 6 Norte 15 Noroeste 0 1020.7 0.5 79
2019-01-27 01:00:00 16.2 9 Noroeste 16 Noroeste 0 1020.9 1.1 77
2019-01-27 00:00:00 16.3 8 Noroeste 13 Noroeste 0 1020.6 1.1 74
2019-01-26 23:00:00 17.3 2 Noroeste 11 Noroeste 0 1020.2 1.1 72
2019-01-26 22:00:00 17.6 6 Norte 12 Norte 0 1019.8 1 71
2019-01-26 21:00:00 17.5 7 Noroeste 11 Nordeste 0 1019.5 1.1 74
2019-01-26 20:00:00 18.7 8 Norte 14 Norte 0 1019.1 1.1 71
2019-01-26 19:00:00 18.8 2 Sudoeste 14 Sur 0 1018.8 1.3 77
2019-01-26 18:00:00 19.2 8 Sur 20 Sur 0 1018.4 0.7 75
2019-01-26 17:00:00 20.4 7 Sur 25 Nordeste 0 1018 -0.5 72
2019-01-26 16:00:00 20.9 13 Nordeste 29 Nordeste 0 1017.5 -2.2 65
2019-01-26 15:00:00 20.5 13 Nordeste 28 Nordeste 0 1017.7 -1.9 72
2019-01-26 14:00:00 21.5 5 Sudeste 13 Sudeste 0 1018.5 -1 73
2019-01-26 13:00:00 20.4 9 Sur 13 Sur 0 1019.7 0.7 77
2019-01-26 12:00:00 21.5 4 Sudeste 13 Sudeste 0 1019.6 1 74
2019-01-26 11:00:00 20.9 3 Sudeste 11 Sudeste 0 1019.5 1.7 77
2019-01-26 10:00:00 20.2 0 Calma 8 Norte 0 1019 1.6 76
2019-01-26 09:00:00 16.6 6 Norte 13 Noroeste 0 1018.6 2 79
2019-01-26 08:00:00 15.6 6 Noroeste 10 Noroeste 0 1017.8 1.5 81
2019-01-26 07:00:00 16.2 5 Noroeste 11 Noroeste 0 1017.4 0.8 80
2019-01-26 06:00:00 16.5 5 Noroeste 11 Noroeste 0 1016.6 -0.1 79
2019-01-26 05:00:00 16.7 5 Noroeste 10 Norte 0 1016.3 -0.5 77
2019-01-26 04:00:00 16.7 3 Norte 15 Noroeste 0 1016.6 -0.5 79
2019-01-26 03:00:00 16 8 Noroeste 14 Noroeste 0 1016.7 0 80
2019-01-26 02:00:00 16.4 6 Noroeste 13 Norte 0 1016.8 0.2 79
2019-01-26 01:00:00 15.9 8 Norte 14 Noroeste 0 1017.1 1 81
2019-01-26 00:00:00 15.8 6 Noroeste 11 Noroeste 0 1016.7 0.9 83
2019-01-25 23:00:00 17.4 3 Noroeste 16 Noroeste 0 1016.6 1 80
2019-01-25 22:00:00 17.6 7 Noroeste 21 Noroeste 0 1016.1 0.8 80
2019-01-25 21:00:00 17.5 7 Noroeste 15 Noroeste 0 1015.8 0.9 80
2019-01-25 20:00:00 18.2 6 Noroeste 14 Norte 0 1015.6 1 80
2019-01-25 19:00:00 18.5 8 Norte 18 Nordeste 0 1015.3 0.8 77
2019-01-25 18:00:00 18.9 6 Sur 11 Sur 0 1014.9 0.6 75
2019-01-25 17:00:00 19.6 7 Sur 14 Sur 0 1014.6 0.1 75
2019-01-25 16:00:00 18.8 11 Sur 20 Sur 0 1014.5 -1.1 77
2019-01-25 15:00:00 19.4 13 Sur 26 Nordeste 0 1014.3 -1.9 74
2019-01-25 14:00:00 19.9 11 Nordeste 23 Nordeste 0 1014.5 -1.8 74
2019-01-25 13:00:00 19.8 12 Nordeste 26 Nordeste 0 1015.6 -0.6 80
2019-01-25 12:00:00 20.3 8 Nordeste 20 Este 0 1016.2 0.4 73
2019-01-25 11:00:00 19.9 7 Nordeste 14 Nordeste 0 1016.3 0.7 74
2019-01-25 10:00:00 20 2 Norte -- -- 0 1016.2 1.4 69
2019-01-25 09:00:00 15.6 6 Norte 14 Noroeste 0 1015.8 1.3 80
2019-01-25 08:00:00 14.3 8 Noroeste 15 Noroeste 0 1015.6 1.1 82
2019-01-25 07:00:00 14.7 6 Norte 13 Noroeste 0 1014.8 0.1 82
2019-01-25 06:00:00 15 8 Noroeste 14 Noroeste 0 1014.5 -0.6 81
2019-01-25 05:00:00 16 8 Noroeste 18 Norte 0 1014.5 -0.8 80
2019-01-25 04:00:00 16.1 9 Noroeste 16 Noroeste 0 1014.7 -0.9 83
2019-01-25 03:00:00 16.8 7 Noroeste 14 Norte 0 1015.1 -0.9 80
2019-01-25 02:00:00 17.1 8 Norte 18 Nordeste 0 1015.3 -0.7 80
2019-01-25 01:00:00 17.5 10 Norte 29 Noroeste 0 1015.6 -0.7 77
2019-01-25 00:00:00 17.3 13 Noroeste 32 Noroeste 0 1016 0.1 77
2019-01-24 23:00:00 16.8 11 Noroeste 25 Noroeste 0 1016 0.5 79
2019-01-24 22:00:00 16.6 12 Noroeste 28 Nordeste 0 1016.3 0.8 80
2019-01-24 21:00:00 17.6 11 Norte 33 Noroeste 0 1015.9 1.2 74
2019-01-24 20:00:00 17.7 9 Norte 33 Norte 0 1015.5 0.1 72
2019-01-24 19:00:00 17.6 9 Norte 38 Nordeste 0 1015.5 -0.2 74
2019-01-24 18:00:00 17.9 12 Norte 33 Norte 0 1014.7 -1.3 71
2019-01-24 17:00:00 18.2 10 Norte 27 Noroeste 0 1015.4 -1.2 71
2019-01-24 16:00:00 18.3 9 Noroeste 30 Norte 0 1015.7 -2 73
2019-01-24 15:00:00 19.4 9 Noroeste 28 Oeste 0 1016 -2.4 67
2019-01-24 14:00:00 19.7 8 Norte 29 Oeste 0 1016.6 -1.9 64
2019-01-24 13:00:00 19.7 9 Nordeste 20 Norte 0 1017.7 -0.6 65
2019-01-24 12:00:00 18.9 3 Noroeste 18 Noroeste 0 1018.4 0.5 70
2019-01-24 11:00:00 18.6 6 Noroeste 26 Noroeste 0 1018.5 0.6 74
2019-01-24 10:00:00 17.3 10 Noroeste 28 Noroeste 0 1018.3 0.6 77
2019-01-24 09:00:00 16.9 10 Norte 28 Noroeste 0 1017.9 0.4 77
2019-01-24 08:00:00 16.6 10 Norte 25 Norte 0 1017.9 -0.4 76
2019-01-24 07:00:00 17 10 Norte 30 Noroeste 0 1017.7 -0.9 74
2019-01-24 06:00:00 16.7 14 Norte 34 Noroeste 0 1017.5 -1.6 75
2019-01-24 05:00:00 16.7 12 Norte 35 Noroeste 0 1018.3 -1.2 77
2019-01-24 04:00:00 15.9 14 Noroeste 36 Noroeste 0 1018.6 -1.6 83
2019-01-24 03:00:00 17.3 7 Norte 26 Nordeste 0 1019.1 -1.6 68
2019-01-24 02:00:00 17.4 13 Norte 29 Nordeste 0 1019.5 -1.4 69
2019-01-24 01:00:00 17.1 11 Norte 30 Oeste 0 1020.2 -0.8 73
2019-01-24 00:00:00 17.5 12 Norte 35 Noroeste 0 1020.7 -0.5 68